sensor_id;sensor_type;location;lat;lon;timestamp;temperature;humidity
9544;DHT22;30418;51.45933468;7.33152330;2022-07-18T00:02:15;24.80;37.50
9544;DHT22;30418;51.45933468;7.33152330;2022-07-18T00:04:48;24.80;37.50
9544;DHT22;30418;51.45933468;7.33152330;2022-07-18T00:07:17;24.80;37.60
9544;DHT22;30418;51.45933468;7.33152330;2022-07-18T00:09:46;24.70;37.60
9544;DHT22;30418;51.45933468;7.33152330;2022-07-18T00:12:15;24.70;37.70
9544;DHT22;30418;51.45933468;7.33152330;2022-07-18T00:14:43;24.70;37.80
9544;DHT22;30418;51.45933468;7.33152330;2022-07-18T00:17:12;24.60;37.80
9544;DHT22;30418;51.45933468;7.33152330;2022-07-18T00:19:42;24.60;37.90
9544;DHT22;30418;51.45933468;7.33152330;2022-07-18T00:22:11;24.60;38.00
9544;DHT22;30418;51.45933468;7.33152330;2022-07-18T00:24:39;24.60;38.10
9544;DHT22;30418;51.45933468;7.33152330;2022-07-18T00:27:08;24.60;38.20
9544;DHT22;30418;51.45933468;7.33152330;2022-07-18T00:29:37;24.50;38.20
9544;DHT22;30418;51.45933468;7.33152330;2022-07-18T00:32:07;24.50;38.30
9544;DHT22;30418;51.45933468;7.33152330;2022-07-18T00:34:36;24.50;38.30
9544;DHT22;30418;51.45933468;7.33152330;2022-07-18T00:37:07;24.50;38.30
9544;DHT22;30418;51.45933468;7.33152330;2022-07-18T00:39:36;24.50;38.30
9544;DHT22;30418;51.45933468;7.33152330;2022-07-18T00:42:05;24.40;38.20
9544;DHT22;30418;51.45933468;7.33152330;2022-07-18T00:44:34;24.40;38.20
9544;DHT22;30418;51.45933468;7.33152330;2022-07-18T00:47:03;24.40;38.30
9544;DHT22;30418;51.45933468;7.33152330;2022-07-18T00:49:31;24.40;38.40
9544;DHT22;30418;51.45933468;7.33152330;2022-07-18T00:52:00;24.40;38.50
9544;DHT22;30418;51.45933468;7.33152330;2022-07-18T00:54:30;24.30;38.50
9544;DHT22;30418;51.45933468;7.33152330;2022-07-18T00:57:00;24.30;38.60
9544;DHT22;30418;51.45933468;7.33152330;2022-07-18T00:59:29;24.30;38.60
9544;DHT22;30418;51.45933468;7.33152330;2022-07-18T01:02:11;24.30;38.60
9544;DHT22;30418;51.45933468;7.33152330;2022-07-18T01:04:40;24.30;38.70
9544;DHT22;30418;51.45933468;7.33152330;2022-07-18T01:07:09;24.20;38.70
9544;DHT22;30418;51.45933468;7.33152330;2022-07-18T01:09:39;24.20;38.80
9544;DHT22;30418;51.45933468;7.33152330;2022-07-18T01:12:08;24.20;39.50
9544;DHT22;30418;51.45933468;7.33152330;2022-07-18T01:14:38;24.20;38.90
9544;DHT22;30418;51.45933468;7.33152330;2022-07-18T01:17:14;24.20;38.90
9544;DHT22;30418;51.45933468;7.33152330;2022-07-18T01:19:44;24.10;39.00
9544;DHT22;30418;51.45933468;7.33152330;2022-07-18T01:22:17;24.10;39.00
9544;DHT22;30418;51.45933468;7.33152330;2022-07-18T01:24:47;24.10;39.00
9544;DHT22;30418;51.45933468;7.33152330;2022-07-18T01:27:18;24.10;39.00
9544;DHT22;30418;51.45933468;7.33152330;2022-07-18T01:29:49;24.10;39.00
9544;DHT22;30418;51.45933468;7.33152330;2022-07-18T01:32:20;24.00;39.00
9544;DHT22;30418;51.45933468;7.33152330;2022-07-18T01:34:49;24.00;39.10
9544;DHT22;30418;51.45933468;7.33152330;2022-07-18T01:37:19;24.00;39.20
9544;DHT22;30418;51.45933468;7.33152330;2022-07-18T01:39:48;23.90;39.20
9544;DHT22;30418;51.45933468;7.33152330;2022-07-18T01:42:17;23.90;39.40
9544;DHT22;30418;51.45933468;7.33152330;2022-07-18T01:44:45;23.90;39.40
9544;DHT22;30418;51.45933468;7.33152330;2022-07-18T01:47:15;23.80;39.40
9544;DHT22;30418;51.45933468;7.33152330;2022-07-18T01:49:44;23.80;39.50
9544;DHT22;30418;51.45933468;7.33152330;2022-07-18T01:52:12;23.80;39.50
9544;DHT22;30418;51.45933468;7.33152330;2022-07-18T01:54:42;23.80;39.60
9544;DHT22;30418;51.45933468;7.33152330;2022-07-18T01:57:11;23.80;39.70
9544;DHT22;30418;51.45933468;7.33152330;2022-07-18T01:59:40;23.80;39.70
9544;DHT22;30418;51.45933468;7.33152330;2022-07-18T02:02:08;23.70;39.70
9544;DHT22;30418;51.45933468;7.33152330;2022-07-18T02:04:37;23.70;39.80
9544;DHT22;30418;51.45933468;7.33152330;2022-07-18T02:07:23;23.70;39.80
9544;DHT22;30418;51.45933468;7.33152330;2022-07-18T02:09:53;23.70;39.80
9544;DHT22;30418;51.45933468;7.33152330;2022-07-18T02:12:23;23.70;39.90
9544;DHT22;30418;51.45933468;7.33152330;2022-07-18T02:14:52;23.70;40.00
9544;DHT22;30418;51.45933468;7.33152330;2022-07-18T02:17:21;23.70;40.00
9544;DHT22;30418;51.45933468;7.33152330;2022-07-18T02:19:50;23.60;40.00
9544;DHT22;30418;51.45933468;7.33152330;2022-07-18T02:22:18;23.60;40.10
9544;DHT22;30418;51.45933468;7.33152330;2022-07-18T02:24:47;23.50;40.10
9544;DHT22;30418;51.45933468;7.33152330;2022-07-18T02:27:17;23.50;40.10
9544;DHT22;30418;51.45933468;7.33152330;2022-07-18T02:29:46;23.50;40.10
9544;DHT22;30418;51.45933468;7.33152330;2022-07-18T02:32:15;23.50;40.10
9544;DHT22;30418;51.45933468;7.33152330;2022-07-18T02:34:43;23.50;40.20
9544;DHT22;30418;51.45933468;7.33152330;2022-07-18T02:37:12;23.50;40.30
9544;DHT22;30418;51.45933468;7.33152330;2022-07-18T02:39:41;23.40;40.20
9544;DHT22;30418;51.45933468;7.33152330;2022-07-18T02:42:10;23.50;40.30
9544;DHT22;30418;51.45933468;7.33152330;2022-07-18T02:44:40;23.40;40.30
9544;DHT22;30418;51.45933468;7.33152330;2022-07-18T02:47:09;23.40;40.40
9544;DHT22;30418;51.45933468;7.33152330;2022-07-18T02:49:37;23.30;40.40
9544;DHT22;30418;51.45933468;7.33152330;2022-07-18T02:52:08;23.40;40.50
9544;DHT22;30418;51.45933468;7.33152330;2022-07-18T02:54:38;23.30;40.50
9544;DHT22;30418;51.45933468;7.33152330;2022-07-18T02:57:07;23.30;40.60
9544;DHT22;30418;51.45933468;7.33152330;2022-07-18T02:59:36;23.30;40.50
9544;DHT22;30418;51.45933468;7.33152330;2022-07-18T03:02:06;23.30;40.60
9544;DHT22;30418;51.45933468;7.33152330;2022-07-18T03:04:35;23.20;40.60
9544;DHT22;30418;51.45933468;7.33152330;2022-07-18T03:07:03;23.20;40.60
9544;DHT22;30418;51.45933468;7.33152330;2022-07-18T03:09:32;23.20;40.60
9544;DHT22;30418;51.45933468;7.33152330;2022-07-18T03:12:01;23.20;40.60
9544;DHT22;30418;51.45933468;7.33152330;2022-07-18T03:14:30;23.10;40.50
9544;DHT22;30418;51.45933468;7.33152330;2022-07-18T03:16:58;23.10;40.60
9544;DHT22;30418;51.45933468;7.33152330;2022-07-18T03:19:29;23.00;40.50
9544;DHT22;30418;51.45933468;7.33152330;2022-07-18T03:21:57;23.00;40.60
9544;DHT22;30418;51.45933468;7.33152330;2022-07-18T03:24:26;23.00;40.60
9544;DHT22;30418;51.45933468;7.33152330;2022-07-18T03:26:55;22.90;40.60
9544;DHT22;30418;51.45933468;7.33152330;2022-07-18T03:29:23;22.90;40.60
9544;DHT22;30418;51.45933468;7.33152330;2022-07-18T03:31:53;22.90;40.70
9544;DHT22;30418;51.45933468;7.33152330;2022-07-18T03:34:21;22.90;40.70
9544;DHT22;30418;51.45933468;7.33152330;2022-07-18T03:36:51;22.90;40.70
9544;DHT22;30418;51.45933468;7.33152330;2022-07-18T03:39:20;22.80;40.70
9544;DHT22;30418;51.45933468;7.33152330;2022-07-18T03:41:48;22.80;40.70
9544;DHT22;30418;51.45933468;7.33152330;2022-07-18T03:44:18;22.80;40.80
9544;DHT22;30418;51.45933468;7.33152330;2022-07-18T03:46:47;22.80;40.90
9544;DHT22;30418;51.45933468;7.33152330;2022-07-18T03:49:18;22.80;40.90
9544;DHT22;30418;51.45933468;7.33152330;2022-07-18T03:51:47;22.70;40.90
9544;DHT22;30418;51.45933468;7.33152330;2022-07-18T03:54:17;22.70;41.00
9544;DHT22;30418;51.45933468;7.33152330;2022-07-18T03:56:46;22.70;41.10
9544;DHT22;30418;51.45933468;7.33152330;2022-07-18T03:59:14;22.70;41.10
9544;DHT22;30418;51.45933468;7.33152330;2022-07-18T04:01:43;22.70;41.20
9544;DHT22;30418;51.45933468;7.33152330;2022-07-18T04:04:12;22.70;41.20
9544;DHT22;30418;51.45933468;7.33152330;2022-07-18T04:06:40;22.70;41.30
9544;DHT22;30418;51.45933468;7.33152330;2022-07-18T04:09:09;22.70;41.40
9544;DHT22;30418;51.45933468;7.33152330;2022-07-18T04:11:39;22.70;41.40
9544;DHT22;30418;51.45933468;7.33152330;2022-07-18T04:14:08;22.70;41.50
9544;DHT22;30418;51.45933468;7.33152330;2022-07-18T04:16:37;22.70;41.40
9544;DHT22;30418;51.45933468;7.33152330;2022-07-18T04:19:05;22.70;41.40
9544;DHT22;30418;51.45933468;7.33152330;2022-07-18T04:21:34;22.70;41.60
9544;DHT22;30418;51.45933468;7.33152330;2022-07-18T04:24:03;22.70;41.60
9544;DHT22;30418;51.45933468;7.33152330;2022-07-18T04:26:32;22.70;41.70
9544;DHT22;30418;51.45933468;7.33152330;2022-07-18T04:29:03;22.60;41.60
9544;DHT22;30418;51.45933468;7.33152330;2022-07-18T04:31:32;22.60;41.60
9544;DHT22;30418;51.45933468;7.33152330;2022-07-18T04:34:01;22.70;41.70
9544;DHT22;30418;51.45933468;7.33152330;2022-07-18T04:36:29;22.60;41.80
9544;DHT22;30418;51.45933468;7.33152330;2022-07-18T04:38:58;22.60;41.80
9544;DHT22;30418;51.45933468;7.33152330;2022-07-18T04:41:27;22.60;42.00
9544;DHT22;30418;51.45933468;7.33152330;2022-07-18T04:44:03;22.60;42.00
9544;DHT22;30418;51.45933468;7.33152330;2022-07-18T04:46:32;22.60;42.00
9544;DHT22;30418;51.45933468;7.33152330;2022-07-18T04:49:02;22.60;42.00
9544;DHT22;30418;51.45933468;7.33152330;2022-07-18T04:51:30;22.60;42.00
9544;DHT22;30418;51.45933468;7.33152330;2022-07-18T04:53:59;22.60;42.00
9544;DHT22;30418;51.45933468;7.33152330;2022-07-18T04:56:28;22.60;42.00
9544;DHT22;30418;51.45933468;7.33152330;2022-07-18T04:58:57;22.60;42.00
9544;DHT22;30418;51.45933468;7.33152330;2022-07-18T05:01:27;22.60;42.00
9544;DHT22;30418;51.45933468;7.33152330;2022-07-18T05:03:55;22.70;42.10
9544;DHT22;30418;51.45933468;7.33152330;2022-07-18T05:06:24;22.70;42.10
9544;DHT22;30418;51.45933468;7.33152330;2022-07-18T05:08:53;22.70;42.30
9544;DHT22;30418;51.45933468;7.33152330;2022-07-18T05:11:21;22.70;42.40
9544;DHT22;30418;51.45933468;7.33152330;2022-07-18T05:13:50;22.70;42.40
9544;DHT22;30418;51.45933468;7.33152330;2022-07-18T05:16:18;22.70;42.50
9544;DHT22;30418;51.45933468;7.33152330;2022-07-18T05:18:48;22.70;42.40
9544;DHT22;30418;51.45933468;7.33152330;2022-07-18T05:21:17;22.70;42.40
9544;DHT22;30418;51.45933468;7.33152330;2022-07-18T05:23:46;22.70;42.50
9544;DHT22;30418;51.45933468;7.33152330;2022-07-18T05:26:15;22.70;42.50
9544;DHT22;30418;51.45933468;7.33152330;2022-07-18T05:28:43;22.70;42.50
9544;DHT22;30418;51.45933468;7.33152330;2022-07-18T05:31:13;22.70;42.40
9544;DHT22;30418;51.45933468;7.33152330;2022-07-18T05:33:41;22.80;42.50
9544;DHT22;30418;51.45933468;7.33152330;2022-07-18T05:36:11;22.80;42.50
9544;DHT22;30418;51.45933468;7.33152330;2022-07-18T05:38:40;22.80;42.50
9544;DHT22;30418;51.45933468;7.33152330;2022-07-18T05:41:08;22.80;42.40
9544;DHT22;30418;51.45933468;7.33152330;2022-07-18T05:43:37;22.80;42.40
9544;DHT22;30418;51.45933468;7.33152330;2022-07-18T05:46:06;22.80;42.50
9544;DHT22;30418;51.45933468;7.33152330;2022-07-18T05:48:43;22.90;42.60
9544;DHT22;30418;51.45933468;7.33152330;2022-07-18T05:51:14;22.90;42.70
9544;DHT22;30418;51.45933468;7.33152330;2022-07-18T05:53:43;22.90;42.70
9544;DHT22;30418;51.45933468;7.33152330;2022-07-18T05:56:12;22.90;42.80
9544;DHT22;30418;51.45933468;7.33152330;2022-07-18T05:58:40;22.90;42.80
9544;DHT22;30418;51.45933468;7.33152330;2022-07-18T06:01:13;23.00;43.00
9544;DHT22;30418;51.45933468;7.33152330;2022-07-18T06:03:47;23.00;43.00
9544;DHT22;30418;51.45933468;7.33152330;2022-07-18T06:06:17;23.00;43.10
9544;DHT22;30418;51.45933468;7.33152330;2022-07-18T06:08:46;23.00;43.20
9544;DHT22;30418;51.45933468;7.33152330;2022-07-18T06:11:14;23.10;43.30
9544;DHT22;30418;51.45933468;7.33152330;2022-07-18T06:13:43;23.10;43.30
9544;DHT22;30418;51.45933468;7.33152330;2022-07-18T06:16:12;23.10;43.40
9544;DHT22;30418;51.45933468;7.33152330;2022-07-18T06:18:41;23.10;43.30
9544;DHT22;30418;51.45933468;7.33152330;2022-07-18T06:21:09;23.20;43.40
9544;DHT22;30418;51.45933468;7.33152330;2022-07-18T06:23:39;23.20;43.50
9544;DHT22;30418;51.45933468;7.33152330;2022-07-18T06:26:08;23.30;43.50
9544;DHT22;30418;51.45933468;7.33152330;2022-07-18T06:28:37;23.20;43.30
9544;DHT22;30418;51.45933468;7.33152330;2022-07-18T06:31:13;23.30;43.40
9544;DHT22;30418;51.45933468;7.33152330;2022-07-18T06:33:43;23.40;43.40
9544;DHT22;30418;51.45933468;7.33152330;2022-07-18T06:36:12;23.40;43.40
9544;DHT22;30418;51.45933468;7.33152330;2022-07-18T06:38:42;23.40;43.40
9544;DHT22;30418;51.45933468;7.33152330;2022-07-18T06:41:11;23.40;43.30
9544;DHT22;30418;51.45933468;7.33152330;2022-07-18T06:43:39;23.50;43.40
9544;DHT22;30418;51.45933468;7.33152330;2022-07-18T06:46:09;23.50;43.20
9544;DHT22;30418;51.45933468;7.33152330;2022-07-18T06:48:38;23.60;43.20
9544;DHT22;30418;51.45933468;7.33152330;2022-07-18T06:51:07;23.60;43.10
9544;DHT22;30418;51.45933468;7.33152330;2022-07-18T06:53:36;23.60;43.00
9544;DHT22;30418;51.45933468;7.33152330;2022-07-18T06:56:06;23.70;42.90
9544;DHT22;30418;51.45933468;7.33152330;2022-07-18T06:58:36;23.70;42.90
9544;DHT22;30418;51.45933468;7.33152330;2022-07-18T07:01:05;23.80;42.90
9544;DHT22;30418;51.45933468;7.33152330;2022-07-18T07:03:35;23.80;42.60
9544;DHT22;30418;51.45933468;7.33152330;2022-07-18T07:06:03;23.80;42.40
9544;DHT22;30418;51.45933468;7.33152330;2022-07-18T07:08:32;23.90;42.30
9544;DHT22;30418;51.45933468;7.33152330;2022-07-18T07:11:01;23.90;42.40
9544;DHT22;30418;51.45933468;7.33152330;2022-07-18T07:13:32;24.00;42.50
9544;DHT22;30418;51.45933468;7.33152330;2022-07-18T07:16:01;24.10;42.50
9544;DHT22;30418;51.45933468;7.33152330;2022-07-18T07:18:29;24.10;42.50
9544;DHT22;30418;51.45933468;7.33152330;2022-07-18T07:20:58;24.10;42.40
9544;DHT22;30418;51.45933468;7.33152330;2022-07-18T07:23:27;24.20;42.40
9544;DHT22;30418;51.45933468;7.33152330;2022-07-18T07:25:55;24.30;42.40
9544;DHT22;30418;51.45933468;7.33152330;2022-07-18T07:28:24;24.30;42.30
9544;DHT22;30418;51.45933468;7.33152330;2022-07-18T07:30:54;24.40;42.20
9544;DHT22;30418;51.45933468;7.33152330;2022-07-18T07:33:23;24.40;42.30
9544;DHT22;30418;51.45933468;7.33152330;2022-07-18T07:35:53;24.50;42.10
9544;DHT22;30418;51.45933468;7.33152330;2022-07-18T07:38:21;24.50;42.10
9544;DHT22;30418;51.45933468;7.33152330;2022-07-18T07:40:55;24.60;42.10
9544;DHT22;30418;51.45933468;7.33152330;2022-07-18T07:43:24;24.60;41.90
9544;DHT22;30418;51.45933468;7.33152330;2022-07-18T07:45:54;24.70;41.80
9544;DHT22;30418;51.45933468;7.33152330;2022-07-18T07:48:23;24.80;41.70
9544;DHT22;30418;51.45933468;7.33152330;2022-07-18T07:50:52;24.90;41.90
9544;DHT22;30418;51.45933468;7.33152330;2022-07-18T07:53:21;24.90;41.80
9544;DHT22;30418;51.45933468;7.33152330;2022-07-18T07:55:53;25.00;42.00
9544;DHT22;30418;51.45933468;7.33152330;2022-07-18T07:58:24;25.10;42.00
9544;DHT22;30418;51.45933468;7.33152330;2022-07-18T08:00:54;25.20;42.10
9544;DHT22;30418;51.45933468;7.33152330;2022-07-18T08:03:23;25.20;41.90
9544;DHT22;30418;51.45933468;7.33152330;2022-07-18T08:05:51;25.30;42.00
9544;DHT22;30418;51.45933468;7.33152330;2022-07-18T08:08:20;25.40;42.00
9544;DHT22;30418;51.45933468;7.33152330;2022-07-18T08:10:49;25.50;41.90
9544;DHT22;30418;51.45933468;7.33152330;2022-07-18T08:13:20;25.60;41.70
9544;DHT22;30418;51.45933468;7.33152330;2022-07-18T08:15:48;25.70;41.60
9544;DHT22;30418;51.45933468;7.33152330;2022-07-18T08:18:18;25.80;41.50
9544;DHT22;30418;51.45933468;7.33152330;2022-07-18T08:20:47;25.90;41.40
9544;DHT22;30418;51.45933468;7.33152330;2022-07-18T08:23:16;26.00;41.40
9544;DHT22;30418;51.45933468;7.33152330;2022-07-18T08:25:45;26.10;41.40
9544;DHT22;30418;51.45933468;7.33152330;2022-07-18T08:28:14;26.20;41.50
9544;DHT22;30418;51.45933468;7.33152330;2022-07-18T08:30:43;26.40;41.40
9544;DHT22;30418;51.45933468;7.33152330;2022-07-18T08:33:12;26.50;41.10
9544;DHT22;30418;51.45933468;7.33152330;2022-07-18T08:35:42;26.60;40.80
9544;DHT22;30418;51.45933468;7.33152330;2022-07-18T08:38:10;26.70;40.30
9544;DHT22;30418;51.45933468;7.33152330;2022-07-18T08:40:40;26.80;40.20
9544;DHT22;30418;51.45933468;7.33152330;2022-07-18T08:43:08;26.90;39.90
9544;DHT22;30418;51.45933468;7.33152330;2022-07-18T08:45:51;27.00;39.90
9544;DHT22;30418;51.45933468;7.33152330;2022-07-18T08:48:21;27.10;39.40
9544;DHT22;30418;51.45933468;7.33152330;2022-07-18T08:50:51;27.20;39.20
9544;DHT22;30418;51.45933468;7.33152330;2022-07-18T08:53:20;27.30;39.00
9544;DHT22;30418;51.45933468;7.33152330;2022-07-18T08:55:52;27.40;38.90
9544;DHT22;30418;51.45933468;7.33152330;2022-07-18T08:58:21;27.50;38.70
9544;DHT22;30418;51.45933468;7.33152330;2022-07-18T09:01:10;27.60;38.60
9544;DHT22;30418;51.45933468;7.33152330;2022-07-18T09:03:39;27.70;38.50
9544;DHT22;30418;51.45933468;7.33152330;2022-07-18T09:06:10;27.80;38.30
9544;DHT22;30418;51.45933468;7.33152330;2022-07-18T09:08:57;27.90;38.00
9544;DHT22;30418;51.45933468;7.33152330;2022-07-18T09:11:27;28.00;37.60
9544;DHT22;30418;51.45933468;7.33152330;2022-07-18T09:14:28;28.10;37.70
9544;DHT22;30418;51.45933468;7.33152330;2022-07-18T09:17:11;28.20;37.20
9544;DHT22;30418;51.45933468;7.33152330;2022-07-18T09:19:42;28.20;37.20
9544;DHT22;30418;51.45933468;7.33152330;2022-07-18T09:22:26;28.30;37.40
9544;DHT22;30418;51.45933468;7.33152330;2022-07-18T09:24:58;28.40;37.20
9544;DHT22;30418;51.45933468;7.33152330;2022-07-18T09:27:34;28.50;36.80
9544;DHT22;30418;51.45933468;7.33152330;2022-07-18T09:30:22;28.50;36.80
9544;DHT22;30418;51.45933468;7.33152330;2022-07-18T09:32:55;28.70;36.50
9544;DHT22;30418;51.45933468;7.33152330;2022-07-18T09:35:35;28.70;36.60
9544;DHT22;30418;51.45933468;7.33152330;2022-07-18T09:38:08;28.80;36.20
9544;DHT22;30418;51.45933468;7.33152330;2022-07-18T09:40:40;28.90;36.30
9544;DHT22;30418;51.45933468;7.33152330;2022-07-18T09:43:11;29.00;35.80
9544;DHT22;30418;51.45933468;7.33152330;2022-07-18T09:45:43;29.10;35.90
9544;DHT22;30418;51.45933468;7.33152330;2022-07-18T09:48:16;29.10;35.60
9544;DHT22;30418;51.45933468;7.33152330;2022-07-18T09:50:50;29.20;35.60
9544;DHT22;30418;51.45933468;7.33152330;2022-07-18T09:53:22;29.20;34.90
9544;DHT22;30418;51.45933468;7.33152330;2022-07-18T09:56:02;29.30;34.70
9544;DHT22;30418;51.45933468;7.33152330;2022-07-18T09:58:36;29.30;34.90
9544;DHT22;30418;51.45933468;7.33152330;2022-07-18T10:01:07;29.40;34.70
9544;DHT22;30418;51.45933468;7.33152330;2022-07-18T10:03:37;29.50;34.50
9544;DHT22;30418;51.45933468;7.33152330;2022-07-18T10:06:07;29.60;35.10
9544;DHT22;30418;51.45933468;7.33152330;2022-07-18T10:08:39;29.60;34.20
9544;DHT22;30418;51.45933468;7.33152330;2022-07-18T10:11:10;29.70;33.90
9544;DHT22;30418;51.45933468;7.33152330;2022-07-18T10:13:39;29.80;33.90
9544;DHT22;30418;51.45933468;7.33152330;2022-07-18T10:16:08;29.90;33.70
9544;DHT22;30418;51.45933468;7.33152330;2022-07-18T10:18:36;30.00;33.60
9544;DHT22;30418;51.45933468;7.33152330;2022-07-18T10:21:07;30.10;33.40
9544;DHT22;30418;51.45933468;7.33152330;2022-07-18T10:23:41;30.10;33.20
9544;DHT22;30418;51.45933468;7.33152330;2022-07-18T10:26:14;30.20;32.90
9544;DHT22;30418;51.45933468;7.33152330;2022-07-18T10:29:10;30.30;33.00
9544;DHT22;30418;51.45933468;7.33152330;2022-07-18T10:32:06;30.40;31.90
9544;DHT22;30418;51.45933468;7.33152330;2022-07-18T10:35:10;30.50;31.80
9544;DHT22;30418;51.45933468;7.33152330;2022-07-18T10:38:25;30.50;31.70
9544;DHT22;30418;51.45933468;7.33152330;2022-07-18T10:41:22;30.60;31.70
9544;DHT22;30418;51.45933468;7.33152330;2022-07-18T10:43:50;30.60;31.90
9544;DHT22;30418;51.45933468;7.33152330;2022-07-18T10:46:19;30.70;31.90
9544;DHT22;30418;51.45933468;7.33152330;2022-07-18T10:48:53;30.80;32.00
9544;DHT22;30418;51.45933468;7.33152330;2022-07-18T10:51:33;30.90;31.80
9544;DHT22;30418;51.45933468;7.33152330;2022-07-18T10:54:06;30.90;31.20
9544;DHT22;30418;51.45933468;7.33152330;2022-07-18T10:57:05;31.00;31.70
9544;DHT22;30418;51.45933468;7.33152330;2022-07-18T10:59:36;31.00;30.10
9544;DHT22;30418;51.45933468;7.33152330;2022-07-18T11:02:30;31.10;31.00
9544;DHT22;30418;51.45933468;7.33152330;2022-07-18T11:05:01;31.20;30.50
9544;DHT22;30418;51.45933468;7.33152330;2022-07-18T11:07:30;31.20;30.90
9544;DHT22;30418;51.45933468;7.33152330;2022-07-18T11:09:58;31.20;30.70
9544;DHT22;30418;51.45933468;7.33152330;2022-07-18T11:12:30;31.30;30.80
9544;DHT22;30418;51.45933468;7.33152330;2022-07-18T11:15:08;31.30;30.50
9544;DHT22;30418;51.45933468;7.33152330;2022-07-18T11:18:01;31.40;30.40
9544;DHT22;30418;51.45933468;7.33152330;2022-07-18T11:20:45;31.40;30.10
9544;DHT22;30418;51.45933468;7.33152330;2022-07-18T11:23:17;31.50;30.30
9544;DHT22;30418;51.45933468;7.33152330;2022-07-18T11:25:48;31.50;30.00
9544;DHT22;30418;51.45933468;7.33152330;2022-07-18T11:28:27;31.60;30.00
9544;DHT22;30418;51.45933468;7.33152330;2022-07-18T11:31:01;31.60;30.00
9544;DHT22;30418;51.45933468;7.33152330;2022-07-18T11:33:34;31.60;29.70
9544;DHT22;30418;51.45933468;7.33152330;2022-07-18T11:36:06;31.60;29.80
9544;DHT22;30418;51.45933468;7.33152330;2022-07-18T11:38:38;31.70;29.90
9544;DHT22;30418;51.45933468;7.33152330;2022-07-18T11:41:07;31.70;29.80
9544;DHT22;30418;51.45933468;7.33152330;2022-07-18T11:43:37;31.80;29.80
9544;DHT22;30418;51.45933468;7.33152330;2022-07-18T11:46:07;31.80;29.60
9544;DHT22;30418;51.45933468;7.33152330;2022-07-18T11:48:44;31.90;29.50
9544;DHT22;30418;51.45933468;7.33152330;2022-07-18T11:51:15;31.90;29.30
9544;DHT22;30418;51.45933468;7.33152330;2022-07-18T11:53:47;31.90;29.30
9544;DHT22;30418;51.45933468;7.33152330;2022-07-18T11:56:17;31.90;29.30
9544;DHT22;30418;51.45933468;7.33152330;2022-07-18T11:58:49;32.00;29.30
9544;DHT22;30418;51.45933468;7.33152330;2022-07-18T12:01:18;32.10;29.20
9544;DHT22;30418;51.45933468;7.33152330;2022-07-18T12:03:49;32.10;29.30
9544;DHT22;30418;51.45933468;7.33152330;2022-07-18T12:06:20;32.10;29.70
9544;DHT22;30418;51.45933468;7.33152330;2022-07-18T12:08:52;32.20;29.00
9544;DHT22;30418;51.45933468;7.33152330;2022-07-18T12:11:28;32.30;29.10
9544;DHT22;30418;51.45933468;7.33152330;2022-07-18T12:14:01;32.30;29.00
9544;DHT22;30418;51.45933468;7.33152330;2022-07-18T12:16:35;32.30;29.00
9544;DHT22;30418;51.45933468;7.33152330;2022-07-18T12:19:13;32.40;29.00
9544;DHT22;30418;51.45933468;7.33152330;2022-07-18T12:21:49;32.50;28.90
9544;DHT22;30418;51.45933468;7.33152330;2022-07-18T12:24:25;32.50;29.10
9544;DHT22;30418;51.45933468;7.33152330;2022-07-18T12:27:17;32.50;29.00
9544;DHT22;30418;51.45933468;7.33152330;2022-07-18T12:29:56;32.60;28.70
9544;DHT22;30418;51.45933468;7.33152330;2022-07-18T12:32:35;32.60;28.80
9544;DHT22;30418;51.45933468;7.33152330;2022-07-18T12:35:08;32.70;29.10
9544;DHT22;30418;51.45933468;7.33152330;2022-07-18T12:37:37;32.80;29.00
9544;DHT22;30418;51.45933468;7.33152330;2022-07-18T12:40:12;32.80;29.00
9544;DHT22;30418;51.45933468;7.33152330;2022-07-18T12:43:08;32.90;28.80
9544;DHT22;30418;51.45933468;7.33152330;2022-07-18T12:45:39;33.00;28.20
9544;DHT22;30418;51.45933468;7.33152330;2022-07-18T12:48:11;33.00;28.40
9544;DHT22;30418;51.45933468;7.33152330;2022-07-18T12:50:41;33.00;28.20
9544;DHT22;30418;51.45933468;7.33152330;2022-07-18T12:53:11;33.10;28.40
9544;DHT22;30418;51.45933468;7.33152330;2022-07-18T12:55:40;33.10;28.60
9544;DHT22;30418;51.45933468;7.33152330;2022-07-18T12:58:10;33.20;28.70
9544;DHT22;30418;51.45933468;7.33152330;2022-07-18T13:00:41;33.20;28.60
9544;DHT22;30418;51.45933468;7.33152330;2022-07-18T13:03:11;33.30;28.40
9544;DHT22;30418;51.45933468;7.33152330;2022-07-18T13:05:40;33.40;28.30
9544;DHT22;30418;51.45933468;7.33152330;2022-07-18T13:08:09;33.40;28.20
9544;DHT22;30418;51.45933468;7.33152330;2022-07-18T13:10:39;33.50;28.30
9544;DHT22;30418;51.45933468;7.33152330;2022-07-18T13:13:08;33.60;28.30
9544;DHT22;30418;51.45933468;7.33152330;2022-07-18T13:15:37;33.60;28.30
9544;DHT22;30418;51.45933468;7.33152330;2022-07-18T13:18:07;33.70;28.00
9544;DHT22;30418;51.45933468;7.33152330;2022-07-18T13:20:36;33.80;28.10
9544;DHT22;30418;51.45933468;7.33152330;2022-07-18T13:23:05;33.80;28.00
9544;DHT22;30418;51.45933468;7.33152330;2022-07-18T13:25:33;33.90;27.80
9544;DHT22;30418;51.45933468;7.33152330;2022-07-18T13:28:02;34.00;28.00
9544;DHT22;30418;51.45933468;7.33152330;2022-07-18T13:30:31;34.00;27.90
9544;DHT22;30418;51.45933468;7.33152330;2022-07-18T13:33:00;34.00;27.80
9544;DHT22;30418;51.45933468;7.33152330;2022-07-18T13:35:30;34.10;27.50
9544;DHT22;30418;51.45933468;7.33152330;2022-07-18T13:37:59;34.20;27.60
9544;DHT22;30418;51.45933468;7.33152330;2022-07-18T13:40:33;34.20;27.40
9544;DHT22;30418;51.45933468;7.33152330;2022-07-18T13:43:02;34.20;27.50
9544;DHT22;30418;51.45933468;7.33152330;2022-07-18T13:45:31;34.30;27.60
9544;DHT22;30418;51.45933468;7.33152330;2022-07-18T13:47:59;34.30;27.50
9544;DHT22;30418;51.45933468;7.33152330;2022-07-18T13:50:29;34.40;27.40
9544;DHT22;30418;51.45933468;7.33152330;2022-07-18T13:52:58;34.30;27.20
9544;DHT22;30418;51.45933468;7.33152330;2022-07-18T13:55:27;34.30;27.00
9544;DHT22;30418;51.45933468;7.33152330;2022-07-18T13:57:57;34.30;27.10